createdAt,value
2018-12-04T00:01:47.683Z,6.70
2018-12-04T00:04:15.286Z,6.70
2018-12-04T00:06:42.881Z,6.80
2018-12-04T00:09:10.454Z,6.70
2018-12-04T00:11:38.075Z,6.70
2018-12-04T00:14:05.733Z,6.70
2018-12-04T00:16:33.545Z,6.70
2018-12-04T00:19:01.139Z,6.70
2018-12-04T00:21:28.730Z,6.70
2018-12-04T00:23:56.419Z,6.70
2018-12-04T00:26:24.021Z,6.80
2018-12-04T00:28:51.698Z,6.80
2018-12-04T00:31:19.585Z,6.80
2018-12-04T00:33:47.316Z,6.70
2018-12-04T00:36:15.269Z,6.70
2018-12-04T00:38:42.902Z,6.70
2018-12-04T00:41:10.482Z,6.70
2018-12-04T00:43:38.137Z,6.70
2018-12-04T00:46:05.744Z,6.70
2018-12-04T00:48:33.580Z,6.70
2018-12-04T00:51:01.185Z,6.70
2018-12-04T00:53:28.768Z,6.60
2018-12-04T00:55:56.495Z,6.60
2018-12-04T00:58:24.282Z,6.60
2018-12-04T01:00:51.855Z,6.60
2018-12-04T01:03:19.743Z,6.60
2018-12-04T01:05:47.644Z,6.60
2018-12-04T01:08:15.259Z,6.60
2018-12-04T01:10:42.840Z,6.60
2018-12-04T01:13:10.465Z,6.70
2018-12-04T01:15:38.065Z,6.50
2018-12-04T01:18:05.671Z,6.50
2018-12-04T01:20:33.667Z,6.50
2018-12-04T01:23:01.265Z,6.50
2018-12-04T01:25:28.865Z,6.50
2018-12-04T01:27:56.458Z,6.50
2018-12-04T01:30:24.293Z,6.50
2018-12-04T01:32:51.881Z,6.50
2018-12-04T01:35:19.658Z,6.40
2018-12-04T01:37:47.633Z,6.50
2018-12-04T01:40:15.309Z,6.50
2018-12-04T01:42:42.876Z,6.50
2018-12-04T01:45:10.536Z,6.40
2018-12-04T01:47:38.102Z,6.40
2018-12-04T01:50:05.741Z,6.40
2018-12-04T01:52:33.525Z,6.40
2018-12-04T01:55:01.160Z,6.40
2018-12-04T01:57:28.745Z,6.40
2018-12-04T01:59:56.585Z,6.40
2018-12-04T02:02:24.199Z,6.40
2018-12-04T02:04:51.779Z,6.30
2018-12-04T02:07:19.578Z,6.30
2018-12-04T02:09:47.278Z,6.30
2018-12-04T02:12:15.050Z,6.30
2018-12-04T02:14:42.645Z,6.30
2018-12-04T02:17:11.010Z,6.30
2018-12-04T02:19:38.624Z,6.30
2018-12-04T02:22:06.242Z,6.30
2018-12-04T02:24:33.891Z,6.20
2018-12-04T02:27:01.472Z,6.20
2018-12-04T02:29:29.048Z,6.20
2018-12-04T02:31:56.616Z,6.20
2018-12-04T02:34:24.193Z,6.10
2018-12-04T02:36:51.794Z,6.10
2018-12-04T02:39:19.389Z,6.10
2018-12-04T02:41:46.993Z,6.10
2018-12-04T02:44:14.601Z,6.00
2018-12-04T02:46:42.228Z,6.00
2018-12-04T02:49:09.823Z,6.00
2018-12-04T02:51:37.401Z,6.00
2018-12-04T02:54:04.994Z,5.90
2018-12-04T02:56:32.733Z,5.90
2018-12-04T02:59:00.335Z,5.90
2018-12-04T03:01:28.087Z,5.90
2018-12-04T03:03:55.655Z,5.90
2018-12-04T03:06:23.246Z,5.90
2018-12-04T03:08:50.983Z,5.90
2018-12-04T03:11:18.649Z,5.90
2018-12-04T03:13:46.276Z,5.90
2018-12-04T03:16:13.906Z,5.90
2018-12-04T03:18:41.541Z,5.90
2018-12-04T03:21:09.190Z,5.90
2018-12-04T03:23:36.772Z,5.90
2018-12-04T03:26:04.374Z,5.90
2018-12-04T03:28:31.961Z,5.90
2018-12-04T03:30:59.587Z,5.90
2018-12-04T03:33:35.770Z,5.90
2018-12-04T03:36:03.718Z,5.90
2018-12-04T03:38:31.310Z,5.90
2018-12-04T03:40:59.002Z,5.90
2018-12-04T03:43:26.612Z,5.90
2018-12-04T03:45:54.228Z,5.90
2018-12-04T03:48:21.818Z,5.90
2018-12-04T03:50:50.501Z,5.80
2018-12-04T03:53:18.498Z,5.90
2018-12-04T03:55:46.107Z,5.90
2018-12-04T03:58:13.691Z,5.90
2018-12-04T04:00:41.481Z,5.80
2018-12-04T04:03:09.274Z,5.90
2018-12-04T04:05:36.940Z,5.80
2018-12-04T04:08:04.563Z,5.80
2018-12-04T04:10:32.167Z,5.80
2018-12-04T04:13:00.055Z,5.80
2018-12-04T04:15:28.065Z,5.80
2018-12-04T04:17:55.662Z,5.80
2018-12-04T04:20:23.242Z,5.80
2018-12-04T04:22:50.896Z,5.80
2018-12-04T04:25:19.650Z,5.80
2018-12-04T04:27:48.701Z,5.70
2018-12-04T04:30:16.315Z,5.70
2018-12-04T04:32:43.960Z,5.70
2018-12-04T04:35:11.674Z,5.70
2018-12-04T04:37:39.329Z,5.70
2018-12-04T04:40:06.944Z,5.70
2018-12-04T04:42:35.385Z,5.60
2018-12-04T04:45:03.009Z,5.60
2018-12-04T04:47:30.600Z,5.60
2018-12-04T04:49:58.191Z,5.60
2018-12-04T04:52:25.771Z,5.60
2018-12-04T04:54:53.363Z,5.50
2018-12-04T04:57:20.982Z,5.50
2018-12-04T04:59:48.628Z,5.50
2018-12-04T05:02:16.222Z,5.50
2018-12-04T05:04:44.425Z,5.50
2018-12-04T05:07:12.315Z,5.50
2018-12-04T05:09:39.893Z,5.40
2018-12-04T05:12:07.490Z,5.40
2018-12-04T05:14:35.098Z,5.40
2018-12-04T05:17:02.681Z,5.40
2018-12-04T05:19:30.284Z,5.40
2018-12-04T05:21:57.854Z,5.30
2018-12-04T05:24:25.418Z,5.40
2018-12-04T05:26:52.994Z,5.30
2018-12-04T05:29:20.565Z,5.30
2018-12-04T05:31:48.650Z,5.30
2018-12-04T05:34:16.260Z,5.30
2018-12-04T05:36:43.893Z,5.30
2018-12-04T05:39:11.473Z,5.30
2018-12-04T05:41:39.077Z,5.20
2018-12-04T05:44:06.769Z,5.20
2018-12-04T05:46:34.581Z,5.20
2018-12-04T05:49:02.234Z,5.20
2018-12-04T05:51:29.822Z,5.20
2018-12-04T05:53:57.428Z,5.20
2018-12-04T05:56:24.992Z,5.20
2018-12-04T05:58:52.572Z,5.10
2018-12-04T06:01:20.137Z,5.10
2018-12-04T06:03:48.101Z,5.10
2018-12-04T06:06:15.890Z,5.10
2018-12-04T06:08:43.486Z,5.10
2018-12-04T06:11:11.191Z,5.10
2018-12-04T06:13:38.765Z,5.10
2018-12-04T06:16:06.413Z,5.10
2018-12-04T06:18:34.155Z,5.10
2018-12-04T06:21:01.770Z,5.10
2018-12-04T06:23:29.340Z,5.10
2018-12-04T06:25:56.954Z,5.10
2018-12-04T06:28:24.563Z,5.10
2018-12-04T06:30:52.148Z,5.10
2018-12-04T06:33:19.740Z,5.10
2018-12-04T06:35:47.484Z,5.10
2018-12-04T06:38:15.156Z,5.10
2018-12-04T06:40:42.764Z,5.10
2018-12-04T06:43:10.365Z,5.10
2018-12-04T06:45:37.967Z,5.10
2018-12-04T06:48:05.531Z,5.10
2018-12-04T06:50:33.122Z,5.10
2018-12-04T06:53:00.691Z,5.10
2018-12-04T06:55:28.266Z,5.10
2018-12-04T06:57:56.841Z,5.10
2018-12-04T07:00:24.586Z,5.20
2018-12-04T07:02:52.240Z,5.20
2018-12-04T07:05:19.847Z,5.10
2018-12-04T07:07:48.892Z,5.20
2018-12-04T07:10:16.489Z,5.20
2018-12-04T07:12:44.089Z,5.20
2018-12-04T07:15:11.660Z,5.20
2018-12-04T07:17:39.232Z,5.20
2018-12-04T07:20:07.492Z,5.20
2018-12-04T07:22:35.395Z,5.20
2018-12-04T07:25:03.185Z,5.20
2018-12-04T07:27:30.764Z,5.20
2018-12-04T07:29:58.385Z,5.20
2018-12-04T07:32:26.059Z,5.20
2018-12-04T07:34:53.679Z,5.20
2018-12-04T07:37:21.248Z,5.20
2018-12-04T07:39:48.974Z,5.20
2018-12-04T07:42:16.576Z,5.20
2018-12-04T07:44:44.182Z,5.30
2018-12-04T07:47:11.788Z,5.30
2018-12-04T07:49:39.408Z,5.30
2018-12-04T07:52:07.060Z,5.20
2018-12-04T07:54:34.781Z,5.30
2018-12-04T07:57:02.400Z,5.30
2018-12-04T07:59:29.998Z,5.30
2018-12-04T08:01:57.626Z,5.30
2018-12-04T08:04:25.253Z,5.30
2018-12-04T08:06:52.883Z,5.30
2018-12-04T08:09:20.837Z,5.30
2018-12-04T08:11:48.684Z,5.30
2018-12-04T08:14:16.351Z,5.30
2018-12-04T08:16:44.042Z,5.30
2018-12-04T08:19:11.626Z,5.30
2018-12-04T08:21:39.215Z,5.40
2018-12-04T08:24:06.818Z,5.30
2018-12-04T08:26:34.555Z,5.40
2018-12-04T08:29:02.145Z,5.40
2018-12-04T08:31:29.798Z,5.40
2018-12-04T08:33:57.395Z,5.40
2018-12-04T08:36:24.999Z,5.40
2018-12-04T08:38:52.610Z,5.30
2018-12-04T08:41:20.215Z,5.40
2018-12-04T08:43:47.983Z,5.40
2018-12-04T08:46:15.624Z,5.30
2018-12-04T08:48:43.254Z,5.40
2018-12-04T08:51:10.838Z,5.30
2018-12-04T08:53:38.417Z,5.40
2018-12-04T08:56:06.017Z,5.40
2018-12-04T08:58:33.641Z,5.40
2018-12-04T09:01:01.341Z,5.30
2018-12-04T09:03:29.049Z,5.30
2018-12-04T09:05:56.641Z,5.40
2018-12-04T09:08:24.270Z,5.40
2018-12-04T09:10:52.023Z,5.40
2018-12-04T09:13:19.686Z,5.40
2018-12-04T09:15:47.349Z,5.30
2018-12-04T09:18:15.008Z,5.40
2018-12-04T09:20:42.812Z,5.30
2018-12-04T09:23:10.463Z,5.30
2018-12-04T09:25:38.154Z,5.30
2018-12-04T09:28:05.904Z,5.30
2018-12-04T09:30:33.589Z,5.30
2018-12-04T09:33:01.179Z,5.40
2018-12-04T09:35:28.827Z,5.30
2018-12-04T09:37:56.456Z,5.30
2018-12-04T09:40:24.042Z,5.30
2018-12-04T09:42:51.651Z,5.30
2018-12-04T09:45:20.174Z,5.30
2018-12-04T09:47:47.928Z,5.30
2018-12-04T09:50:15.574Z,5.30
2018-12-04T09:52:43.226Z,5.30
2018-12-04T09:55:10.851Z,5.30
2018-12-04T09:57:38.486Z,5.30
2018-12-04T10:00:07.726Z,5.30
2018-12-04T10:02:36.529Z,5.30
2018-12-04T10:05:04.535Z,5.30
2018-12-04T10:07:32.104Z,5.30
2018-12-04T10:10:00.798Z,5.30
2018-12-04T10:12:28.658Z,5.30
2018-12-04T10:14:56.225Z,5.30
2018-12-04T10:17:23.845Z,5.30
2018-12-04T10:19:51.442Z,5.30
2018-12-04T10:22:19.429Z,5.30
2018-12-04T10:24:47.044Z,5.30
2018-12-04T10:27:14.634Z,5.30
2018-12-04T10:29:42.273Z,5.20
2018-12-04T10:32:09.861Z,5.20
2018-12-04T10:34:37.733Z,5.20
2018-12-04T10:37:05.343Z,5.20
2018-12-04T10:39:33.003Z,5.20
2018-12-04T10:42:00.659Z,5.30
2018-12-04T10:44:29.290Z,5.20
2018-12-04T10:46:57.069Z,5.20
2018-12-04T10:49:24.741Z,5.20
2018-12-04T10:51:52.337Z,5.10
2018-12-04T10:54:19.934Z,5.20
2018-12-04T10:56:47.864Z,5.20
2018-12-04T10:59:15.470Z,5.20
2018-12-04T11:01:48.651Z,5.20
2018-12-04T11:04:16.246Z,5.20
2018-12-04T11:06:43.821Z,5.20
2018-12-04T11:09:11.435Z,5.30
2018-12-04T11:11:39.046Z,5.30
2018-12-04T11:14:07.336Z,5.30
2018-12-04T11:16:34.948Z,5.20
2018-12-04T11:19:02.571Z,5.20
2018-12-04T11:21:30.268Z,5.30
2018-12-04T11:23:57.903Z,5.30
2018-12-04T11:26:25.567Z,5.30
2018-12-04T11:28:53.222Z,5.30
2018-12-04T11:31:20.817Z,5.30
2018-12-04T11:33:48.450Z,5.30
2018-12-04T11:36:18.397Z,5.20
2018-12-04T11:38:46.019Z,5.20
2018-12-04T11:41:13.660Z,5.20
2018-12-04T11:43:41.305Z,5.20
2018-12-04T11:46:08.916Z,5.20
2018-12-04T11:48:36.611Z,5.20
2018-12-04T11:51:04.287Z,5.20
2018-12-04T11:53:32.008Z,4.80
2018-12-04T11:55:59.575Z,5.10
2018-12-04T11:58:27.149Z,5.10
2018-12-04T12:00:55.094Z,5.10
2018-12-04T12:03:22.677Z,5.10
2018-12-04T12:05:50.261Z,5.40
2018-12-04T12:08:17.920Z,5.10
2018-12-04T12:10:45.518Z,5.10
2018-12-04T12:13:13.119Z,5.10
2018-12-04T12:15:40.869Z,5.10
2018-12-04T12:18:08.450Z,5.10
2018-12-04T12:20:36.040Z,5.10
2018-12-04T12:23:03.664Z,5.10
2018-12-04T12:25:31.260Z,5.10
2018-12-04T12:27:58.863Z,5.00
2018-12-04T12:30:26.444Z,5.00
2018-12-04T12:32:54.165Z,5.00
2018-12-04T12:35:21.746Z,5.00
2018-12-04T12:37:49.536Z,5.00
2018-12-04T12:40:17.661Z,4.90
2018-12-04T12:42:45.321Z,4.80
2018-12-04T12:45:12.911Z,4.80
2018-12-04T12:47:40.657Z,4.80
2018-12-04T12:50:08.594Z,4.80
2018-12-04T12:52:36.190Z,4.80
2018-12-04T12:55:05.008Z,4.70
2018-12-04T12:57:32.629Z,4.70
2018-12-04T13:00:00.233Z,4.70
2018-12-04T13:02:27.822Z,4.70
2018-12-04T13:04:55.398Z,4.60
2018-12-04T13:07:23.335Z,4.60
2018-12-04T13:09:51.036Z,4.60
2018-12-04T13:12:18.981Z,4.60
2018-12-04T13:14:46.594Z,4.60
2018-12-04T13:17:14.290Z,4.60
2018-12-04T13:19:41.991Z,4.50
2018-12-04T13:22:09.576Z,4.60
2018-12-04T13:24:37.356Z,4.50
2018-12-04T13:27:04.971Z,4.50
2018-12-04T13:29:32.574Z,4.50
2018-12-04T13:32:00.424Z,4.50
2018-12-04T13:34:28.054Z,4.50
2018-12-04T13:36:55.724Z,4.40
2018-12-04T13:39:23.354Z,4.40
2018-12-04T13:41:50.969Z,4.30
2018-12-04T13:44:19.122Z,4.40
2018-12-04T13:46:46.713Z,4.40
2018-12-04T13:49:14.316Z,4.40
2018-12-04T13:51:41.965Z,4.40
2018-12-04T13:54:09.564Z,4.40
2018-12-04T13:56:37.221Z,4.40
2018-12-04T13:59:04.802Z,4.40
2018-12-04T14:01:32.403Z,4.30
2018-12-04T14:04:00.028Z,4.40
2018-12-04T14:06:27.656Z,4.30
2018-12-04T14:08:55.304Z,4.30
2018-12-04T14:11:22.944Z,4.20
2018-12-04T14:13:50.548Z,4.20
2018-12-04T14:16:18.416Z,4.20
2018-12-04T14:18:46.256Z,4.20
2018-12-04T14:21:14.109Z,4.20
2018-12-04T14:23:41.741Z,4.10
2018-12-04T14:26:09.418Z,4.10
2018-12-04T14:28:37.240Z,4.00
2018-12-04T14:31:05.040Z,4.00
2018-12-04T14:33:32.716Z,4.00
2018-12-04T14:36:00.367Z,3.90
2018-12-04T14:38:28.008Z,3.90
2018-12-04T14:40:55.735Z,3.80
2018-12-04T14:43:23.516Z,3.80
2018-12-04T14:45:51.832Z,3.80
2018-12-04T14:48:19.572Z,3.80
2018-12-04T14:50:47.500Z,3.70
2018-12-04T14:53:15.292Z,3.60
2018-12-04T14:55:42.895Z,3.60
2018-12-04T14:58:10.485Z,3.60
2018-12-04T15:00:38.152Z,3.50
2018-12-04T15:03:05.999Z,3.50
2018-12-04T15:05:33.776Z,3.50
2018-12-04T15:08:01.483Z,3.40
2018-12-04T15:10:29.221Z,3.40
2018-12-04T15:12:56.854Z,3.40
2018-12-04T15:15:24.825Z,3.30
2018-12-04T15:17:52.569Z,3.30
2018-12-04T15:20:20.326Z,3.30
2018-12-04T15:22:48.527Z,3.30
2018-12-04T15:25:16.271Z,3.30
2018-12-04T15:27:43.906Z,3.30
2018-12-04T15:30:11.625Z,3.30
2018-12-04T15:32:39.719Z,3.30
2018-12-04T15:35:07.395Z,3.30
2018-12-04T15:37:35.157Z,3.30
2018-12-04T15:40:03.691Z,3.20
2018-12-04T15:42:31.496Z,3.20
2018-12-04T15:44:59.210Z,3.20
2018-12-04T15:47:26.768Z,3.10
2018-12-04T15:49:54.442Z,3.10
2018-12-04T15:52:22.023Z,3.10
2018-12-04T15:54:49.651Z,3.10
2018-12-04T15:57:19.814Z,3.10
2018-12-04T15:59:48.958Z,3.00
2018-12-04T16:02:16.582Z,3.10
2018-12-04T16:04:44.176Z,3.00
2018-12-04T16:07:11.755Z,3.10
2018-12-04T16:09:42.055Z,3.10
2018-12-04T16:12:11.939Z,3.10
2018-12-04T16:14:42.749Z,3.10
2018-12-04T16:17:15.308Z,3.10
2018-12-04T16:19:44.398Z,3.10
2018-12-04T16:22:14.121Z,3.10
2018-12-04T16:24:43.919Z,3.20
2018-12-04T16:27:13.526Z,3.10
2018-12-04T16:29:42.874Z,3.20
2018-12-04T16:32:12.326Z,3.20
2018-12-04T16:34:41.252Z,3.20
2018-12-04T16:37:08.962Z,3.20
2018-12-04T16:39:36.585Z,3.20
2018-12-04T16:42:06.182Z,3.20
2018-12-04T16:44:33.812Z,3.20
2018-12-04T16:47:01.452Z,3.20
2018-12-04T16:49:29.131Z,3.20
2018-12-04T16:51:56.764Z,3.20
2018-12-04T16:54:24.399Z,3.20
2018-12-04T16:56:51.995Z,3.20
2018-12-04T16:59:19.914Z,3.20
2018-12-04T17:01:47.896Z,3.20
2018-12-04T17:04:15.539Z,3.20
2018-12-04T17:06:43.308Z,3.20
2018-12-04T17:09:11.266Z,3.20
2018-12-04T17:11:38.968Z,3.20
2018-12-04T17:14:06.615Z,3.20
2018-12-04T17:16:34.219Z,3.20
2018-12-04T17:19:02.045Z,3.20
2018-12-04T17:21:29.718Z,3.20
2018-12-04T17:23:57.493Z,3.20
2018-12-04T17:26:25.074Z,3.20
2018-12-04T17:28:52.672Z,3.20
2018-12-04T17:31:20.257Z,3.10
2018-12-04T17:33:48.682Z,3.20
2018-12-04T17:36:16.287Z,3.10
2018-12-04T17:38:44.026Z,3.10
2018-12-04T17:41:11.641Z,3.10
2018-12-04T17:43:40.735Z,3.10
2018-12-04T17:46:08.417Z,3.10
2018-12-04T17:48:36.061Z,3.10
2018-12-04T17:51:03.821Z,3.00
2018-12-04T17:53:31.394Z,3.00
2018-12-04T17:55:58.997Z,3.00
2018-12-04T17:58:26.576Z,3.10
2018-12-04T18:00:54.186Z,3.10
2018-12-04T18:03:21.768Z,3.10
2018-12-04T18:05:49.516Z,3.10
2018-12-04T18:08:18.322Z,3.10
2018-12-04T18:10:45.987Z,3.20
2018-12-04T18:13:13.560Z,3.20
2018-12-04T18:15:42.151Z,3.20
2018-12-04T18:18:09.771Z,3.20
2018-12-04T18:20:37.404Z,3.20
2018-12-04T18:23:05.031Z,3.10
2018-12-04T18:25:32.850Z,3.20
2018-12-04T18:28:00.452Z,3.20
2018-12-04T18:30:28.032Z,3.20
2018-12-04T18:32:55.705Z,3.10
2018-12-04T18:35:23.494Z,3.20
2018-12-04T18:37:51.132Z,3.20
2018-12-04T18:40:19.905Z,3.20
2018-12-04T18:42:47.922Z,3.10
2018-12-04T18:45:15.525Z,3.10
2018-12-04T18:47:43.227Z,3.20
2018-12-04T18:50:10.931Z,3.10
2018-12-04T18:52:38.787Z,3.20
2018-12-04T18:55:07.390Z,3.20
2018-12-04T18:57:34.962Z,3.20
2018-12-04T19:00:02.736Z,3.10
2018-12-04T19:02:30.372Z,3.10
2018-12-04T19:04:58.003Z,3.20
2018-12-04T19:07:25.742Z,3.10
2018-12-04T19:09:53.531Z,3.10
2018-12-04T19:12:21.141Z,3.10
2018-12-04T19:14:50.368Z,3.20
2018-12-04T19:17:18.999Z,3.10
2018-12-04T19:19:46.605Z,3.20
2018-12-04T19:22:14.175Z,3.20
2018-12-04T19:24:42.249Z,3.20
2018-12-04T19:27:10.007Z,3.20
2018-12-04T19:29:38.351Z,3.20
2018-12-04T19:32:06.039Z,3.20
2018-12-04T19:34:33.655Z,3.10
2018-12-04T19:37:01.521Z,3.10
2018-12-04T19:39:29.141Z,3.10
2018-12-04T19:41:56.789Z,3.20
2018-12-04T19:44:24.484Z,3.10
2018-12-04T19:46:52.091Z,3.10
2018-12-04T19:49:19.737Z,3.10
2018-12-04T19:51:48.809Z,3.10
2018-12-04T19:54:16.419Z,3.10
2018-12-04T19:56:44.085Z,3.10
2018-12-04T19:59:11.971Z,3.10
2018-12-04T20:01:39.801Z,3.10
2018-12-04T20:04:07.393Z,3.10
2018-12-04T20:06:35.007Z,3.00
2018-12-04T20:09:02.843Z,3.00
2018-12-04T20:11:30.446Z,3.00
2018-12-04T20:13:58.168Z,3.00
2018-12-04T20:16:25.916Z,3.00
2018-12-04T20:18:53.515Z,3.00
2018-12-04T20:21:21.467Z,2.90
2018-12-04T20:23:49.398Z,2.90
2018-12-04T20:26:18.627Z,2.90
2018-12-04T20:28:46.428Z,2.90
2018-12-04T20:31:14.140Z,2.90
2018-12-04T20:33:41.879Z,2.90
2018-12-04T20:36:10.483Z,2.90
2018-12-04T20:38:38.207Z,2.90
2018-12-04T20:41:05.789Z,2.90
2018-12-04T20:43:33.370Z,2.90
2018-12-04T20:46:05.871Z,2.90
2018-12-04T20:48:30.673Z,2.80
2018-12-04T20:50:58.703Z,2.80
2018-12-04T20:53:26.278Z,2.80
2018-12-04T20:55:53.930Z,2.70
2018-12-04T20:58:22.316Z,2.70
2018-12-04T21:00:50.070Z,2.70
2018-12-04T21:03:18.485Z,2.60
2018-12-04T21:05:46.780Z,2.60
2018-12-04T21:08:15.390Z,2.50
2018-12-04T21:10:43.170Z,2.90
2018-12-04T21:13:14.465Z,2.50
2018-12-04T21:15:40.843Z,2.50
2018-12-04T21:18:08.604Z,2.40
2018-12-04T21:20:36.510Z,2.40
2018-12-04T21:23:04.148Z,2.40
2018-12-04T21:25:31.744Z,2.40
2018-12-04T21:28:06.095Z,2.30
2018-12-04T21:30:39.582Z,2.30
2018-12-04T21:33:12.870Z,2.30
2018-12-04T21:38:56.649Z,2.30
2018-12-04T21:44:48.797Z,2.30
2018-12-04T21:47:21.985Z,2.30
2018-12-04T21:49:49.664Z,2.30
2018-12-04T21:52:17.549Z,2.20
2018-12-04T21:54:45.158Z,2.20
2018-12-04T21:57:12.730Z,2.20
2018-12-04T21:59:40.327Z,2.20
2018-12-04T22:02:07.937Z,2.20
2018-12-04T22:04:35.573Z,2.20
2018-12-04T22:07:03.167Z,2.20
2018-12-04T22:09:30.748Z,2.20
2018-12-04T22:11:58.415Z,2.20
2018-12-04T22:14:26.015Z,2.20
2018-12-04T22:16:53.597Z,2.20
2018-12-04T22:19:21.380Z,2.10
2018-12-04T22:21:49.564Z,2.10
2018-12-04T22:24:17.421Z,2.10
2018-12-04T22:26:45.242Z,2.10
2018-12-04T22:29:12.902Z,2.10
2018-12-04T22:31:41.795Z,2.10
2018-12-04T22:34:09.505Z,2.10
2018-12-04T22:36:37.209Z,2.10
2018-12-04T22:39:07.730Z,2.10
2018-12-04T22:41:35.363Z,2.00
2018-12-04T22:44:02.999Z,2.00
2018-12-04T22:46:30.713Z,2.00
2018-12-04T22:48:58.318Z,2.00
2018-12-04T22:51:26.548Z,2.00
2018-12-04T22:53:54.170Z,2.00
2018-12-04T22:56:21.819Z,2.00
2018-12-04T22:58:50.224Z,2.00
2018-12-04T23:01:29.629Z,2.00
2018-12-04T23:03:57.274Z,2.00
2018-12-04T23:06:24.848Z,2.00
2018-12-04T23:08:53.067Z,2.00
2018-12-04T23:11:20.767Z,2.00
2018-12-04T23:13:48.644Z,2.00
2018-12-04T23:16:16.343Z,1.90
2018-12-04T23:18:43.920Z,1.90
2018-12-04T23:21:11.534Z,1.90
2018-12-04T23:23:39.134Z,1.90
2018-12-04T23:26:06.836Z,1.90
2018-12-04T23:28:34.416Z,2.00
2018-12-04T23:31:01.989Z,1.90
2018-12-04T23:33:29.765Z,1.90
2018-12-04T23:35:57.390Z,1.90
2018-12-04T23:38:25.062Z,2.00
2018-12-04T23:40:52.644Z,2.00
2018-12-04T23:43:20.314Z,1.90
2018-12-04T23:45:48.221Z,2.00
2018-12-04T23:48:15.821Z,2.00
2018-12-04T23:50:43.704Z,1.90
2018-12-04T23:53:11.278Z,1.90
2018-12-04T23:55:38.868Z,1.90
2018-12-04T23:58:06.452Z,1.90
